Time;durP1;ratioP1;P1;durP2;ratioP2;P2;SDS_P1;SDS_P2;PMS_P1;PMS_P2;Temp;Humidity;BMP_temperature;BMP_pressure;BME280_temperature;BME280_humidity;BME280_pressure;Samples;Min_cycle;Max_cycle;Signal;HPM_P1;HPM_P2
2022/02/17 00:00:45;;;;;;;19.16;17.36;;;;;;;4.56;65.34;101066.47;434178;120;923024;-75
2022/02/17 00:01:49;;;;;;;19.35;17.35;;;;;;;4.56;65.33;101062.92;434815;120;922538;-74
2022/02/17 00:02:53;;;;;;;16.97;15.39;;;;;;;4.57;65.35;101062.77;432246;121;922694;-75
2022/02/17 00:03:56;;;;;;;18.09;16.49;;;;;;;4.58;65.43;101050.08;426041;122;924313;-75
2022/02/17 00:05:00;;;;;;;18.04;16.31;;;;;;;4.60;65.28;101035.42;441904;117;922787;-75
2022/02/17 00:06:03;;;;;;;24.85;18.29;;;;;;;4.60;65.28;101035.42;450180;116;923177;-75
2022/02/17 00:07:06;;;;;;;18.08;16.55;;;;;;;4.63;65.39;101036.11;450337;117;922788;-73
2022/02/17 00:08:09;;;;;;;17.09;15.55;;;;;;;4.63;65.43;101023.45;449379;116;923024;-73
2022/02/17 00:09:12;;;;;;;18.57;16.76;;;;;;;4.64;65.39;101027.82;449618;117;922646;-73
2022/02/17 00:10:17;;;;;;;18.22;16.62;;;;;;;4.63;65.45;101018.88;450174;117;922560;-74
2022/02/17 00:11:20;;;;;;;18.22;16.49;;;;;;;4.64;65.43;101030.52;449551;117;922908;-74
2022/02/17 00:12:23;;;;;;;17.37;15.67;;;;;;;4.65;65.47;101026.81;449089;117;922640;-75
2022/02/17 00:13:26;;;;;;;18.22;16.49;;;;;;;4.66;65.50;101022.27;448843;116;922635;-73
2022/02/17 00:14:29;;;;;;;18.59;16.87;;;;;;;4.67;65.55;101016.70;449591;117;922572;-74
2022/02/17 00:15:33;;;;;;;17.02;15.41;;;;;;;4.68;65.52;101017.55;449129;117;922834;-73
2022/02/17 00:16:36;;;;;;;17.03;15.36;;;;;;;4.68;65.56;101017.55;448559;117;922454;-74
2022/02/17 00:17:40;;;;;;;18.04;16.40;;;;;;;4.71;65.53;101017.20;449297;117;922626;-74
2022/02/17 00:18:43;;;;;;;18.84;15.79;;;;;;;4.71;65.56;101015.35;449182;116;922784;-74
2022/02/17 00:19:48;;;;;;;18.29;16.62;;;;;;;4.71;65.58;101009.10;448166;116;922779;-75
2022/02/17 00:20:55;;;;;;;17.42;15.71;;;;;;;4.72;65.61;101013.50;448193;116;922868;-73
2022/02/17 00:21:59;;;;;;;18.31;16.56;;;;;;;4.73;65.61;101012.49;447968;116;922623;-74
2022/02/17 00:23:03;;;;;;;18.51;16.64;;;;;;;4.75;65.65;101010.45;448784;117;922804;-74
2022/02/17 00:24:07;;;;;;;17.95;16.15;;;;;;;4.76;65.67;101012.14;448525;116;922733;-74
2022/02/17 00:25:10;;;;;;;18.40;16.64;;;;;;;4.77;65.70;101017.39;448507;116;922489;-74
2022/02/17 00:26:15;;;;;;;20.34;17.74;;;;;;;4.78;65.70;101013.69;448172;117;922752;-73
2022/02/17 00:27:18;;;;;;;19.45;17.67;;;;;;;4.80;65.72;101010.79;449730;117;922614;-74
2022/02/17 00:28:22;;;;;;;19.49;17.52;;;;;;;4.82;65.70;101011.48;449414;117;922610;-74
2022/02/17 00:29:25;;;;;;;18.78;16.69;;;;;;;4.83;65.72;100999.67;451345;116;922976;-74
2022/02/17 00:30:29;;;;;;;18.50;16.91;;;;;;;4.84;65.69;100998.66;451134;115;930627;-74
2022/02/17 00:31:32;;;;;;;18.19;16.40;;;;;;;4.86;65.69;100994.77;452020;116;922725;-74
2022/02/17 00:32:37;;;;;;;17.75;16.23;;;;;;;4.87;65.66;100987.50;452763;116;930681;-73
2022/02/17 00:33:40;;;;;;;17.97;16.35;;;;;;;4.89;65.67;100990.89;452675;115;930646;-73
2022/02/17 00:34:44;;;;;;;18.33;15.67;;;;;;;4.89;65.65;100985.49;452484;116;922935;-74
2022/02/17 00:35:47;;;;;;;17.21;15.65;;;;;;;4.90;65.68;100989.89;452368;116;922610;-74
2022/02/17 00:36:51;;;;;;;17.70;15.94;;;;;;;4.91;65.65;100987.00;452300;116;922875;-74
2022/02/17 00:37:57;;;;;;;17.64;15.95;;;;;;;4.90;65.64;100985.33;451024;115;922596;-73
2022/02/17 00:39:00;;;;;;;17.36;15.77;;;;;;;4.92;65.69;100988.69;452843;115;922690;-73
2022/02/17 00:40:04;;;;;;;21.02;16.99;;;;;;;4.92;65.69;100980.59;453324;116;922617;-73
2022/02/17 00:41:07;;;;;;;16.81;15.31;;;;;;;4.94;65.73;100985.83;452031;115;922617;-74
2022/02/17 00:42:10;;;;;;;17.79;15.94;;;;;;;4.96;65.67;100978.41;452687;116;922694;-73
2022/02/17 00:43:15;;;;;;;16.97;15.37;;;;;;;4.95;65.60;100980.27;453826;116;923020;-74
2022/02/17 00:44:18;;;;;;;19.55;17.31;;;;;;;4.95;65.61;100976.72;444725;119;923206;-74
2022/02/17 00:45:22;;;;;;;19.01;17.07;;;;;;;4.95;65.63;100977.56;444795;116;922468;-74
2022/02/17 00:46:27;;;;;;;18.65;16.90;;;;;;;4.96;65.67;100973.01;452569;115;922548;-74
2022/02/17 00:47:30;;;;;;;18.27;16.52;;;;;;;4.96;65.73;100967.60;452657;116;922595;-75
2022/02/17 00:48:33;;;;;;;18.12;16.52;;;;;;;4.96;65.77;100971.12;453590;116;922495;-74
2022/02/17 00:49:37;;;;;;;18.49;16.65;;;;;;;4.96;65.80;100965.72;453701;115;923176;-74
2022/02/17 00:50:40;;;;;;;18.01;16.17;;;;;;;4.97;65.84;100966.56;452985;116;922598;-75
2022/02/17 00:51:43;;;;;;;18.69;16.89;;;;;;;4.98;65.90;100960.15;452751;116;930561;-74
2022/02/17 00:52:49;;;;;;;15.90;14.39;;;;;;;4.98;65.96;100955.59;451444;116;922572;-74
2022/02/17 00:53:52;;;;;;;17.49;14.62;;;;;;;4.98;66.00;100957.45;452398;115;922623;-75
2022/02/17 00:54:57;;;;;;;18.08;15.29;;;;;;;4.98;66.11;100952.89;452734;116;922905;-74
2022/02/17 00:56:00;;;;;;;16.85;15.23;;;;;;;4.98;66.12;100947.48;452131;116;930750;-73
2022/02/17 00:57:04;;;;;;;18.32;15.76;;;;;;;4.96;66.19;100945.98;452034;116;930621;-73
2022/02/17 00:58:07;;;;;;;16.59;15.14;;;;;;;4.96;66.23;100944.09;451497;115;922498;-73
2022/02/17 00:59:12;;;;;;;17.25;15.46;;;;;;;4.95;66.27;100941.59;452776;116;930554;-74
2022/02/17 01:00:16;;;;;;;16.66;15.18;;;;;;;4.97;66.36;100955.75;447007;117;930609;-74
2022/02/17 01:01:20;;;;;;;17.66;15.90;;;;;;;4.95;66.36;100941.59;446956;116;922750;-74
2022/02/17 01:02:24;;;;;;;15.33;14.00;;;;;;;4.97;66.38;100942.24;451338;116;922524;-73
2022/02/17 01:03:27;;;;;;;16.92;15.14;;;;;;;4.97;66.43;100936.84;452604;115;922603;-74
2022/02/17 01:04:30;;;;;;;18.37;16.42;;;;;;;4.95;66.43;100936.19;453385;116;922641;-73
2022/02/17 01:05:33;;;;;;;17.52;15.83;;;;;;;4.95;66.46;100939.73;452034;116;922544;-73
2022/02/17 01:06:39;;;;;;;17.66;16.04;;;;;;;4.95;66.47;100937.03;453036;115;930719;-74
2022/02/17 01:07:42;;;;;;;19.34;15.96;;;;;;;4.96;66.48;100943.28;452061;115;922782;-73
2022/02/17 01:08:45;;;;;;;19.02;17.16;;;;;;;4.97;66.51;100940.39;452841;116;922604;-74
2022/02/17 01:09:49;;;;;;;20.59;18.53;;;;;;;4.98;66.50;100943.94;452992;116;922607;-74
2022/02/17 01:10:53;;;;;;;20.87;18.86;;;;;;;4.98;66.52;100941.23;453127;115;922604;-74
2022/02/17 01:11:56;;;;;;;19.91;18.24;;;;;;;4.99;66.57;100945.63;452206;115;922564;-73
2022/02/17 01:13:00;;;;;;;19.09;17.25;;;;;;;4.99;66.56;100945.63;453805;116;922580;-74
2022/02/17 01:14:07;;;;;;;23.42;20.98;;;;;;;5.00;66.57;100939.22;454184;115;922610;-74
2022/02/17 01:15:10;;;;;;;23.38;21.01;;;;;;;5.01;66.61;100940.91;453020;115;922622;-74
2022/02/17 01:16:13;;;;;;;21.16;19.22;;;;;;;5.02;66.56;100939.88;453260;116;922613;-74
2022/02/17 01:17:17;;;;;;;22.26;19.94;;;;;;;5.03;66.53;100953.22;453861;114;923181;-73
2022/02/17 01:18:20;;;;;;;21.06;18.92;;;;;;;5.04;66.52;100948.66;452971;115;922877;-73
2022/02/17 01:19:23;;;;;;;20.29;17.94;;;;;;;5.05;66.54;100939.55;451626;115;922500;-74
2022/02/17 01:20:26;;;;;;;21.31;19.12;;;;;;;5.06;66.58;100941.24;452078;115;923760;-73
2022/02/17 01:21:31;;;;;;;20.89;18.98;;;;;;;5.08;66.54;100944.60;452546;116;922704;-74
2022/02/17 01:22:35;;;;;;;21.16;18.62;;;;;;;5.07;66.51;100932.13;452790;116;922689;-74
2022/02/17 01:23:38;;;;;;;21.81;18.81;;;;;;;5.10;66.49;100941.73;451574;115;922548;-74
2022/02/17 01:24:42;;;;;;;21.39;17.64;;;;;;;5.10;66.53;100933.62;452702;115;923549;-73
2022/02/17 01:25:45;;;;;;;19.07;16.96;;;;;;;5.11;66.54;100933.47;452694;116;922530;-73
2022/02/17 01:26:49;;;;;;;18.15;16.56;;;;;;;5.11;66.56;100925.36;451938;115;922555;-74
2022/02/17 01:27:55;;;;;;;21.31;18.59;;;;;;;5.12;66.58;100929.75;451476;115;922687;-73
2022/02/17 01:28:58;;;;;;;18.45;16.72;;;;;;;5.13;66.57;100925.20;453538;115;922592;-74
2022/02/17 01:30:05;;;;;;;19.71;17.86;;;;;;;5.14;66.56;100933.11;451884;116;930566;-73
2022/02/17 01:31:09;;;;;;;21.59;17.21;;;;;;;5.14;66.57;100925.00;451621;116;922790;-73
2022/02/17 01:32:12;;;;;;;17.63;16.09;;;;;;;5.15;66.59;100929.40;451751;116;923108;-73
2022/02/17 01:33:16;;;;;;;18.47;16.71;;;;;;;5.16;66.60;100930.25;452617;115;923056;-74
2022/02/17 01:34:20;;;;;;;20.38;18.22;;;;;;;5.15;66.63;100928.55;452684;116;922661;-74
2022/02/17 01:35:37;;;;;;;22.26;19.06;;;;;;;5.15;66.64;100926.69;452718;115;923094;-73
2022/02/17 01:36:41;;;;;;;20.04;17.99;;;;;;;5.16;66.64;100930.25;452198;115;922633;-74
2022/02/17 01:37:46;;;;;;;18.83;17.12;;;;;;;5.17;66.67;100921.13;453548;116;922958;-73
2022/02/17 01:38:50;;;;;;;17.27;15.74;;;;;;;5.18;66.65;100922.81;453967;116;923456;-74
2022/02/17 01:39:53;;;;;;;19.39;17.46;;;;;;;5.19;66.70;100919.92;452838;116;922557;-73
2022/02/17 01:40:56;;;;;;;20.36;18.29;;;;;;;5.20;66.71;100923.47;452928;116;930521;-73
2022/02/17 01:41:59;;;;;;;18.81;16.84;;;;;;;5.21;66.69;100922.46;453496;116;930671;-74
2022/02/17 01:43:03;;;;;;;17.66;15.89;;;;;;;5.21;66.73;100920.61;453401;116;922981;-74
2022/02/17 01:44:06;;;;;;;16.82;15.19;;;;;;;5.22;66.76;100921.45;453005;115;923146;-74
2022/02/17 01:45:11;;;;;;;17.27;15.32;;;;;;;5.23;66.79;100928.55;452344;115;923117;-74
2022/02/17 01:46:16;;;;;;;18.81;17.11;;;;;;;5.23;66.79;100928.55;453476;116;922683;-72
2022/02/17 01:47:19;;;;;;;25.03;20.68;;;;;;;5.23;66.88;100923.99;453160;116;922608;-74
2022/02/17 01:48:23;;;;;;;25.18;22.06;;;;;;;5.23;66.90;100926.70;452872;115;923055;-74
2022/02/17 01:49:26;;;;;;;29.79;24.05;;;;;;;5.25;66.91;100929.20;451353;116;922535;-75
2022/02/17 01:50:32;;;;;;;29.61;24.56;;;;;;;5.24;66.96;100925.66;451568;116;930807;-72
2022/02/17 01:51:35;;;;;;;24.19;21.76;;;;;;;5.25;66.98;100926.50;452318;116;922665;-73
2022/02/17 01:52:39;;;;;;;23.30;21.00;;;;;;;5.25;67.01;100927.34;451768;115;922640;-73
2022/02/17 01:53:42;;;;;;;23.07;21.07;;;;;;;5.26;67.00;100926.34;452096;115;930597;-74
2022/02/17 01:54:47;;;;;;;22.30;19.73;;;;;;;5.26;66.97;100926.34;452482;116;923157;-74
2022/02/17 01:55:54;;;;;;;19.34;17.45;;;;;;;5.25;67.01;100923.80;452546;116;930544;-74
2022/02/17 01:56:58;;;;;;;20.33;18.39;;;;;;;5.23;67.05;100929.40;451203;115;922945;-74
2022/02/17 01:58:04;;;;;;;18.78;16.97;;;;;;;5.23;67.09;100923.99;451580;116;923141;-74
2022/02/17 01:59:09;;;;;;;19.72;17.48;;;;;;;5.23;67.09;100926.70;453732;116;922664;-74
2022/02/17 02:00:15;;;;;;;20.89;18.03;;;;;;;5.23;67.16;100925.85;437225;119;922717;-72
2022/02/17 02:01:18;;;;;;;19.55;17.34;;;;;;;5.22;67.17;100919.59;451966;116;922847;-72
2022/02/17 02:02:22;;;;;;;20.04;17.34;;;;;;;5.21;67.19;100915.20;453166;116;922612;-74
2022/02/17 02:03:27;;;;;;;21.13;18.43;;;;;;;5.22;67.24;100914.19;452330;115;922610;-72
2022/02/17 02:04:34;;;;;;;23.27;18.39;;;;;;;5.23;67.29;100910.47;452977;115;922558;-73
2022/02/17 02:05:39;;;;;;;27.11;19.49;;;;;;;5.23;67.28;100912.33;452348;115;923103;-72
2022/02/17 02:06:43;;;;;;;27.87;21.88;;;;;;;5.23;67.26;100907.77;453548;116;922819;-72
2022/02/17 02:07:47;;;;;;;23.28;20.85;;;;;;;5.22;67.29;100911.48;453842;116;922990;-73
2022/02/17 02:08:58;;;;;;;28.09;21.24;;;;;;;5.23;67.35;100915.03;451379;115;922562;-70
2022/02/17 02:10:03;;;;;;;33.01;21.18;;;;;;;5.21;67.36;100904.39;453135;116;922581;-72
2022/02/17 02:11:08;;;;;;;28.46;20.16;;;;;;;5.23;67.37;100901.52;451747;116;922609;-72
2022/02/17 02:12:13;;;;;;;28.02;20.09;;;;;;;5.20;67.41;100908.09;451985;116;922639;-74
2022/02/17 02:13:18;;;;;;;26.54;19.94;;;;;;;5.18;67.50;100902.04;452092;116;922585;-72
2022/02/17 02:14:21;;;;;;;27.77;19.87;;;;;;;5.18;67.57;100901.19;452323;115;930685;-71
2022/02/17 02:15:28;;;;;;;24.41;19.79;;;;;;;5.18;67.62;100907.45;453371;115;922550;-73
2022/02/17 02:16:30;;;;;;;29.98;21.86;;;;;;;5.19;67.67;100905.56;452625;116;922601;-71
2022/02/17 02:17:34;;;;;;;30.23;21.35;;;;;;;5.18;67.71;100904.75;451992;116;922798;-73
2022/02/17 02:18:37;;;;;;;23.93;20.54;;;;;;;5.19;67.75;100901.00;451545;115;930642;-72
2022/02/17 02:19:40;;;;;;;28.76;20.52;;;;;;;5.19;67.76;100903.70;452544;115;922624;-71
2022/02/17 02:20:57;;;;;;;25.06;19.37;;;;;;;5.19;67.76;100909.11;453502;116;922418;-73
2022/02/17 02:22:05;;;;;;;25.33;19.83;;;;;;;5.20;67.82;100907.25;437464;119;922566;-73
2022/02/17 02:23:08;;;;;;;25.47;20.18;;;;;;;5.20;67.89;100909.95;453102;115;923113;-71
2022/02/17 02:24:11;;;;;;;22.94;19.16;;;;;;;5.21;67.97;100908.95;453709;116;922709;-72
2022/02/17 02:25:14;;;;;;;20.37;18.00;;;;;;;5.21;67.97;100912.49;452903;116;922532;-73
2022/02/17 02:26:20;;;;;;;22.76;19.41;;;;;;;5.23;67.97;100912.33;429352;120;922689;-69
2022/02/17 02:27:23;;;;;;;27.52;21.36;;;;;;;5.23;67.91;100910.47;436876;118;922744;-72
2022/02/17 02:28:31;;;;;;;27.17;21.35;;;;;;;5.24;67.96;100906.73;443219;117;930496;-73
2022/02/17 02:29:36;;;;;;;22.72;20.32;;;;;;;5.24;68.01;100906.73;452285;116;923052;-73
2022/02/17 02:30:40;;;;;;;26.21;20.47;;;;;;;5.26;67.98;100903.86;446176;116;922797;-73
2022/02/17 02:31:43;;;;;;;23.06;20.34;;;;;;;5.27;68.03;100900.15;445329;116;930508;-73
2022/02/17 02:32:46;;;;;;;23.12;20.61;;;;;;;5.29;68.00;100900.83;432330;122;923319;-73
2022/02/17 02:33:49;;;;;;;26.93;20.43;;;;;;;5.30;68.02;100899.79;440036;120;922453;-72
2022/02/17 02:34:53;;;;;;;23.45;19.84;;;;;;;5.30;68.05;100895.23;429130;120;922732;-71
2022/02/17 02:35:56;;;;;;;18.81;17.01;;;;;;;5.31;68.01;100899.62;446542;118;923181;-71
2022/02/17 02:37:05;;;;;;;20.08;17.63;;;;;;;5.32;68.01;100900.47;442079;118;922606;-72
2022/02/17 02:38:09;;;;;;;17.92;16.07;;;;;;;5.33;68.07;100902.16;444085;117;922695;-72
2022/02/17 02:39:12;;;;;;;18.47;16.65;;;;;;;5.33;68.09;100903.02;445211;116;922597;-73
2022/02/17 02:40:17;;;;;;;20.79;18.34;;;;;;;5.33;68.10;100894.90;440873;118;922671;-71
2022/02/17 02:41:21;;;;;;;18.31;16.32;;;;;;;5.33;68.11;100903.02;443754;117;922532;-71
2022/02/17 02:42:26;;;;;;;18.16;16.27;;;;;;;5.33;68.15;100897.61;443503;117;922652;-73
2022/02/17 02:43:29;;;;;;;18.63;16.76;;;;;;;5.35;68.20;100895.55;444389;117;922922;-73
2022/02/17 02:44:33;;;;;;;16.71;15.01;;;;;;;5.37;68.20;100900.80;446305;118;922920;-71
2022/02/17 02:45:38;;;;;;;17.09;15.51;;;;;;;5.37;68.16;100900.80;439924;118;923305;-73
2022/02/17 02:46:43;;;;;;;18.44;16.63;;;;;;;5.39;68.15;100905.03;440008;118;930583;-72
2022/02/17 02:47:46;;;;;;;19.49;16.96;;;;;;;5.40;68.19;100901.28;436493;118;923019;-72
2022/02/17 02:48:50;;;;;;;19.66;17.82;;;;;;;5.41;68.19;100897.56;431877;120;922874;-72
2022/02/17 02:49:53;;;;;;;19.25;16.69;;;;;;;5.43;68.21;100898.25;439629;119;922665;-72
2022/02/17 02:50:56;;;;;;;17.47;15.68;;;;;;;5.43;68.16;100900.95;439865;118;922702;-74
2022/02/17 02:51:59;;;;;;;18.70;16.84;;;;;;;5.44;68.16;100899.94;439280;120;923745;-72
2022/02/17 02:53:14;;;;;;;21.29;16.91;;;;;;;5.45;68.20;100895.38;435971;118;922626;-71
2022/02/17 02:54:18;;;;;;;18.73;16.82;;;;;;;5.46;68.22;100902.44;436356;120;922654;-73
2022/02/17 02:55:21;;;;;;;18.87;17.01;;;;;;;5.46;68.17;100903.29;444614;117;922636;-72
2022/02/17 02:56:25;;;;;;;20.26;17.46;;;;;;;5.48;68.19;100904.98;445603;118;929196;-74
2022/02/17 02:57:28;;;;;;;20.54;17.80;;;;;;;5.48;68.25;100899.58;446299;117;922727;-73
2022/02/17 02:58:32;;;;;;;23.35;18.94;;;;;;;5.48;68.24;100894.17;444191;117;922605;-72
2022/02/17 02:59:36;;;;;;;20.02;17.97;;;;;;;5.48;68.23;100892.31;442561;117;922496;-72
2022/02/17 03:00:43;;;;;;;19.58;17.32;;;;;;;5.49;68.26;100894.00;436181;118;930618;-73
2022/02/17 03:01:46;;;;;;;19.07;17.23;;;;;;;5.51;68.28;100891.13;432787;120;922607;-73
2022/02/17 03:02:49;;;;;;;21.46;17.79;;;;;;;5.51;68.26;100896.54;427836;121;922675;-73
2022/02/17 03:03:53;;;;;;;21.25;18.08;;;;;;;5.51;68.26;100891.98;431625;121;922527;-72
2022/02/17 03:04:55;;;;;;;19.84;17.44;;;;;;;5.53;68.25;100889.08;439705;119;922608;-73
2022/02/17 03:05:58;;;;;;;21.85;18.39;;;;;;;5.53;68.21;100886.38;428471;121;923726;-72
2022/02/17 03:07:02;;;;;;;23.26;18.36;;;;;;;5.53;68.21;100884.52;431847;121;922703;-72
2022/02/17 03:08:06;;;;;;;22.62;19.06;;;;;;;5.54;68.24;100885.36;439248;119;923103;-72
2022/02/17 03:09:09;;;;;;;23.91;19.56;;;;;;;5.54;68.24;100888.91;435873;118;922931;-72
2022/02/17 03:10:12;;;;;;;29.26;21.19;;;;;;;5.55;68.24;100887.90;444173;118;930660;-73
2022/02/17 03:11:15;;;;;;;28.63;20.64;;;;;;;5.55;68.18;100882.48;444877;116;922714;-73
2022/02/17 03:12:19;;;;;;;28.52;20.12;;;;;;;5.55;68.20;100882.48;444625;117;922629;-72
2022/02/17 03:13:23;;;;;;;33.95;22.06;;;;;;;5.55;68.19;100882.48;443998;118;922657;-73
2022/02/17 03:14:26;;;;;;;36.88;23.12;;;;;;;5.55;68.14;100887.90;444746;118;922766;-74
2022/02/17 03:15:30;;;;;;;31.03;21.58;;;;;;;5.54;68.13;100879.95;445356;118;922656;-73
2022/02/17 03:16:33;;;;;;;38.91;23.87;;;;;;;5.53;68.19;100880.96;439866;118;922705;-72
2022/02/17 03:17:38;;;;;;;41.95;24.63;;;;;;;5.53;68.21;100870.98;431932;120;922701;-75
2022/02/17 03:18:41;;;;;;;43.03;24.27;;;;;;;5.53;68.25;100879.11;438164;120;930448;-71
2022/02/17 03:19:46;;;;;;;39.47;25.41;;;;;;;5.54;68.30;100877.25;439449;120;922739;-72
2022/02/17 03:20:49;;;;;;;42.19;25.52;;;;;;;5.54;68.30;100874.54;432409;120;923195;-73
2022/02/17 03:21:54;;;;;;;44.03;26.29;;;;;;;5.54;68.23;100875.39;424654;122;923172;-72
2022/02/17 03:22:59;;;;;;;51.28;27.99;;;;;;;5.55;68.22;100873.53;435054;119;922921;-71
2022/02/17 03:24:04;;;;;;;49.18;28.23;;;;;;;5.55;68.21;100871.67;433470;118;922644;-73
2022/02/17 03:25:11;;;;;;;52.95;28.78;;;;;;;5.55;68.23;100854.59;443681;116;922807;-74
2022/02/17 03:26:18;;;;;;;51.43;26.98;;;;;;;5.56;68.19;100862.55;444597;117;923028;-75
2022/02/17 03:27:21;;;;;;;40.31;23.47;;;;;;;5.55;68.21;100862.70;432431;120;922835;-72
2022/02/17 03:28:26;;;;;;;39.38;24.66;;;;;;;5.56;68.22;100861.70;440436;118;922643;-73
2022/02/17 03:29:31;;;;;;;34.05;21.55;;;;;;;5.55;68.20;100860.85;444054;117;922647;-71
2022/02/17 03:30:35;;;;;;;25.54;19.04;;;;;;;5.56;68.20;100865.25;448500;116;922740;-71
2022/02/17 03:31:40;;;;;;;22.26;18.19;;;;;;;5.56;68.18;100862.55;451804;116;922639;-72
2022/02/17 03:32:45;;;;;;;23.56;18.75;;;;;;;5.56;68.24;100873.36;452236;116;922570;-73
2022/02/17 03:33:49;;;;;;;22.04;17.10;;;;;;;5.56;68.24;100864.41;442889;118;923131;-73
2022/02/17 03:34:54;;;;;;;20.41;17.19;;;;;;;5.56;68.26;100857.13;443304;116;930596;-72
2022/02/17 03:35:59;;;;;;;17.49;15.69;;;;;;;5.56;68.24;100858.99;451209;116;922630;-73
2022/02/17 03:37:02;;;;;;;17.32;15.39;;;;;;;5.56;68.27;100854.42;452579;116;922635;-73
2022/02/17 03:38:06;;;;;;;17.27;15.62;;;;;;;5.55;68.25;100854.59;453297;115;922589;-70
2022/02/17 03:39:09;;;;;;;17.27;15.58;;;;;;;5.53;68.34;100852.06;452311;116;925788;-74
2022/02/17 03:40:32;;;;;;;19.32;14.72;;;;;;;5.52;68.41;100855.77;429728;122;930827;-73
2022/02/17 03:41:36;;;;;;;15.28;13.75;;;;;;;5.52;68.43;100846.81;429042;122;923591;-73
2022/02/17 03:42:43;;;;;;;16.90;15.29;;;;;;;5.50;68.48;100854.28;427845;122;930769;-72
2022/02/17 03:43:46;;;;;;;16.49;14.90;;;;;;;5.49;68.54;100858.00;428733;122;923852;-71
2022/02/17 03:44:51;;;;;;;17.12;15.59;;;;;;;5.48;68.62;100854.45;428567;123;922806;-73
2022/02/17 03:45:56;;;;;;;15.27;13.81;;;;;;;5.49;68.67;100844.48;420079;124;923399;-73
2022/02/17 03:47:01;;;;;;;14.81;13.09;;;;;;;5.49;68.69;100841.77;444115;117;922784;-73
2022/02/17 03:48:06;;;;;;;13.77;12.49;;;;;;;5.49;68.64;100836.36;444771;116;922738;-72
2022/02/17 03:49:09;;;;;;;13.54;12.43;;;;;;;5.46;68.64;100843.80;445282;117;922704;-74
2022/02/17 03:50:12;;;;;;;13.76;12.66;;;;;;;5.44;68.71;100832.33;445378;116;922747;-71
2022/02/17 03:51:15;;;;;;;14.71;13.24;;;;;;;5.42;68.81;100831.66;452531;115;922599;-73
2022/02/17 03:52:19;;;;;;;12.93;11.73;;;;;;;5.42;68.92;100844.33;443051;117;922658;-73
2022/02/17 03:53:24;;;;;;;14.44;13.03;;;;;;;5.41;68.93;100846.19;444121;116;930341;-73
2022/02/17 03:54:28;;;;;;;13.94;12.76;;;;;;;5.40;68.95;100827.45;452139;116;922649;-70
2022/02/17 03:55:33;;;;;;;14.19;12.84;;;;;;;5.38;69.00;100824.92;451949;116;922952;-73
2022/02/17 03:56:36;;;;;;;14.16;12.91;;;;;;;5.38;69.03;100833.03;452489;116;922680;-72
2022/02/17 03:57:58;;;;;;;13.63;12.43;;;;;;;5.39;69.06;100831.17;437597;118;923257;-73
2022/02/17 03:59:07;;;;;;;13.55;12.42;;;;;;;5.39;69.10;100833.87;435977;118;923062;-73
2022/02/17 04:00:13;;;;;;;14.31;12.88;;;;;;;5.39;69.15;100832.02;437535;118;923300;-71
2022/02/17 04:01:19;;;;;;;14.15;12.89;;;;;;;5.39;69.15;100833.87;437468;118;922904;-72
2022/02/17 04:02:25;;;;;;;14.69;13.41;;;;;;;5.38;69.14;100829.48;437143;118;923197;-72
2022/02/17 04:03:35;;;;;;;13.24;12.06;;;;;;;5.49;69.22;100822.84;474757;109;947113;-73
2022/02/17 04:04:39;;;;;;;13.15;11.91;;;;;;;5.38;69.18;100824.92;467230;111;922920;-72
2022/02/17 04:05:43;;;;;;;13.77;12.44;;;;;;;5.39;69.23;100831.17;463143;113;922903;-75
2022/02/17 04:06:46;;;;;;;14.64;13.34;;;;;;;5.38;69.31;100832.19;463835;112;930440;-73
2022/02/17 04:07:50;;;;;;;14.28;12.96;;;;;;;5.39;69.33;100823.06;463839;113;923365;-73
2022/02/17 04:08:57;;;;;;;14.06;12.87;;;;;;;5.39;69.33;100832.02;463112;114;922566;-72
2022/02/17 04:10:01;;;;;;;14.09;12.83;;;;;;;5.41;69.32;100826.41;463594;112;923765;-71
2022/02/17 04:11:05;;;;;;;13.58;12.51;;;;;;;5.42;69.33;100823.55;461546;112;922617;-73
2022/02/17 04:12:10;;;;;;;14.03;12.86;;;;;;;5.41;69.30;100821.84;454089;114;922741;-73
2022/02/17 04:13:14;;;;;;;15.20;13.79;;;;;;;5.41;69.31;100824.55;456034;114;922579;-74
2022/02/17 04:14:25;;;;;;;14.01;12.84;;;;;;;5.42;69.42;100823.55;460020;112;930353;-73
2022/02/17 04:15:30;;;;;;;13.45;12.08;;;;;;;5.42;69.40;100812.73;462221;113;922582;-73
2022/02/17 04:16:33;;;;;;;13.45;12.36;;;;;;;5.44;69.43;100816.11;461475;113;922629;-74
2022/02/17 04:17:39;;;;;;;14.67;13.24;;;;;;;5.44;69.44;100816.11;450135;114;922837;-74
2022/02/17 04:18:50;;;;;;;13.97;12.74;;;;;;;5.46;69.40;100811.34;449375;113;922730;-71
2022/02/17 04:19:58;;;;;;;13.27;11.99;;;;;;;5.46;69.41;100815.91;460912;112;922938;-73
2022/02/17 04:21:20;;;;;;;14.38;13.05;;;;;;;5.46;69.42;100819.45;459245;114;923006;-73
2022/02/17 04:22:28;;;;;;;13.26;11.99;;;;;;;5.47;69.38;100814.89;456503;113;922654;-75
2022/02/17 04:23:50;;;;;;;14.67;13.20;;;;;;;5.45;69.42;100804.28;461408;112;923119;-72
2022/02/17 04:24:55;;;;;;;13.57;12.39;;;;;;;5.44;69.45;100809.86;461858;112;923223;-71
2022/02/17 04:26:00;;;;;;;13.19;12.14;;;;;;;5.44;69.47;100812.56;461921;113;922678;-73
2022/02/17 04:27:17;;;;;;;14.19;12.76;;;;;;;5.42;69.52;100812.73;462275;113;923377;-73
2022/02/17 04:28:22;;;;;;;13.46;12.19;;;;;;;5.42;69.58;100817.29;460310;113;922604;-72
2022/02/17 04:29:26;;;;;;;13.01;11.98;;;;;;;5.40;69.66;100808.53;462952;112;922501;-74
2022/02/17 04:30:30;;;;;;;14.02;12.76;;;;;;;5.39;69.69;100807.69;464090;113;922697;-73
2022/02/17 04:31:35;;;;;;;15.17;13.78;;;;;;;5.39;69.74;100810.39;464091;112;922911;-72
2022/02/17 04:32:38;;;;;;;13.62;12.38;;;;;;;5.40;69.77;100808.53;463882;113;923082;-71
2022/02/17 04:33:45;;;;;;;14.47;12.49;;;;;;;5.41;69.80;100811.03;461016;111;930365;-72
2022/02/17 04:34:53;;;;;;;14.62;13.15;;;;;;;5.43;69.77;100805.45;453283;115;922682;-73
2022/02/17 04:35:56;;;;;;;15.72;14.21;;;;;;;5.44;69.76;100813.41;455105;113;923241;-72
2022/02/17 04:36:59;;;;;;;14.51;13.20;;;;;;;5.44;69.76;100808.00;452112;114;922857;-73
2022/02/17 04:38:02;;;;;;;16.04;13.36;;;;;;;5.45;69.77;100808.84;449835;116;922985;-72
2022/02/17 04:39:07;;;;;;;15.88;13.43;;;;;;;5.46;69.76;100813.20;461413;112;922597;-72
2022/02/17 04:40:14;;;;;;;14.51;12.97;;;;;;;5.48;69.77;100810.33;462445;112;923037;-73
2022/02/17 04:42:49;;;;;;;14.93;13.41;;;;;;;5.47;69.76;100809.48;458949;113;922728;-74
2022/02/17 04:43:52;;;;;;;14.71;13.28;;;;;;;5.45;69.75;100806.14;463157;112;923183;-71
2022/02/17 04:44:56;;;;;;;17.59;14.77;;;;;;;5.45;69.81;100815.09;461492;112;930373;-74
2022/02/17 04:46:00;;;;;;;14.67;13.28;;;;;;;5.45;69.82;100809.69;461723;112;923076;-71
2022/02/17 04:47:04;;;;;;;15.27;12.48;;;;;;;5.44;69.77;100805.30;462123;113;922559;-73
2022/02/17 04:48:07;;;;;;;16.99;14.33;;;;;;;5.45;69.78;100811.55;462128;113;922730;-71
2022/02/17 04:49:11;;;;;;;15.99;14.20;;;;;;;5.44;69.77;100816.11;463136;113;922700;-71
2022/02/17 04:50:15;;;;;;;14.94;13.64;;;;;;;5.45;69.80;100811.55;454817;115;930451;-71
2022/02/17 04:51:19;;;;;;;15.65;14.12;;;;;;;5.44;69.82;100816.11;463083;114;922558;-73
2022/02/17 04:52:22;;;;;;;16.60;14.13;;;;;;;5.45;69.81;100817.80;462557;113;922580;-74
2022/02/17 04:53:27;;;;;;;15.41;13.89;;;;;;;5.45;69.79;100822.36;455376;114;930424;-72
2022/02/17 04:54:32;;;;;;;16.24;14.63;;;;;;;5.45;69.90;100820.50;463048;113;922988;-73
2022/02/17 04:55:37;;;;;;;16.51;14.92;;;;;;;5.45;69.90;100820.50;463987;113;923104;-75